createdAt,value
2024-03-05T00:01:38.215Z,11.25
2024-03-05T00:04:05.788Z,11.22
2024-03-05T00:06:33.651Z,11.48
2024-03-05T00:09:02.063Z,11.26
2024-03-05T00:11:29.534Z,11.33
2024-03-05T00:14:00.515Z,11.39
2024-03-05T00:16:28.068Z,10.98
2024-03-05T00:18:55.987Z,10.85
2024-03-05T00:21:23.444Z,10.71
2024-03-05T00:23:51.101Z,10.73
2024-03-05T00:26:18.971Z,10.58
2024-03-05T00:29:02.044Z,10.34
2024-03-05T00:31:29.993Z,10.18
2024-03-05T00:33:57.718Z,9.85
2024-03-05T00:36:25.192Z,9.90
2024-03-05T00:38:52.620Z,9.91
2024-03-05T00:41:20.092Z,9.84
2024-03-05T00:43:47.917Z,10.12
2024-03-05T00:46:23.018Z,10.33
2024-03-05T00:48:51.009Z,10.15
2024-03-05T00:51:18.959Z,10.04
2024-03-05T00:54:03.015Z,9.88
2024-03-05T00:56:30.982Z,9.92
2024-03-05T00:58:58.481Z,9.88
2024-03-05T01:01:26.356Z,10.12
2024-03-05T01:03:56.204Z,9.96
2024-03-05T01:06:23.688Z,9.91
2024-03-05T01:08:51.624Z,9.91
2024-03-05T01:11:19.086Z,9.87
2024-03-05T01:13:46.871Z,10.02
2024-03-05T01:16:14.641Z,9.94
2024-03-05T01:18:42.249Z,9.99
2024-03-05T01:21:09.595Z,10.17
2024-03-05T01:23:37.417Z,10.11
2024-03-05T01:26:05.120Z,9.93
2024-03-05T01:28:33.016Z,9.99
2024-03-05T01:31:01.228Z,10.19
2024-03-05T01:33:29.062Z,10.30
2024-03-05T01:36:09.989Z,10.15
2024-03-05T01:38:37.803Z,10.58
2024-03-05T01:41:05.273Z,10.03
2024-03-05T01:43:33.166Z,9.61
2024-03-05T01:46:02.963Z,8.81
2024-03-05T01:48:30.747Z,8.81
2024-03-05T01:50:58.498Z,8.77
2024-03-05T01:53:42.974Z,8.96
2024-03-05T01:56:10.813Z,9.15
2024-03-05T01:58:38.820Z,9.21
2024-03-05T02:01:06.391Z,9.43
2024-03-05T02:03:34.319Z,9.22
2024-03-05T02:06:01.792Z,9.23
2024-03-05T02:08:29.330Z,9.35
2024-03-05T02:10:56.896Z,9.52
2024-03-05T02:13:24.328Z,8.95
2024-03-05T02:15:51.869Z,8.58
2024-03-05T02:18:19.604Z,8.59
2024-03-05T02:20:47.062Z,8.68
2024-03-05T02:23:14.865Z,8.63
2024-03-05T02:25:42.366Z,8.43
2024-03-05T02:28:10.096Z,8.62
2024-03-05T02:30:37.950Z,8.77
2024-03-05T02:33:05.542Z,8.90
2024-03-05T02:35:33.378Z,8.88
2024-03-05T02:38:05.403Z,8.85
2024-03-05T02:40:33.124Z,8.99
2024-03-05T02:43:00.775Z,8.86
2024-03-05T02:45:28.229Z,8.93
2024-03-05T02:47:55.905Z,9.19
2024-03-05T02:50:26.974Z,8.94
2024-03-05T02:52:54.705Z,9.38
2024-03-05T02:55:22.726Z,8.91
2024-03-05T02:58:06.954Z,9.28
2024-03-05T03:00:34.805Z,8.94
2024-03-05T03:03:02.752Z,8.85
2024-03-05T03:05:32.236Z,8.83
2024-03-05T03:07:59.724Z,8.98
2024-03-05T03:10:27.399Z,9.17
2024-03-05T03:13:05.902Z,9.16
2024-03-05T03:15:33.468Z,9.29
2024-03-05T03:18:00.924Z,9.37
2024-03-05T03:20:38.958Z,9.14
2024-03-05T03:23:06.674Z,9.24
2024-03-05T03:25:36.838Z,9.24
2024-03-05T03:28:20.366Z,9.16
2024-03-05T03:30:48.113Z,9.34
2024-03-05T03:33:15.848Z,9.67
2024-03-05T03:35:45.917Z,9.61
2024-03-05T03:38:13.837Z,9.41
2024-03-05T03:40:41.640Z,9.27
2024-03-05T03:43:09.404Z,9.36
2024-03-05T03:45:47.216Z,9.57
2024-03-05T03:48:14.967Z,9.54
2024-03-05T03:50:42.389Z,9.33
2024-03-05T03:53:10.171Z,9.14
2024-03-05T03:55:37.900Z,8.97
2024-03-05T03:58:08.951Z,8.99
2024-03-05T04:00:36.712Z,9.27
2024-03-05T04:03:04.603Z,8.87
2024-03-05T04:05:32.088Z,9.04
2024-03-05T04:08:06.038Z,9.10
2024-03-05T04:10:33.882Z,9.57
2024-03-05T04:13:15.986Z,9.73
2024-03-05T04:16:03.823Z,9.40
2024-03-05T04:18:40.481Z,9.46
2024-03-05T04:21:07.917Z,9.37
2024-03-05T04:23:35.381Z,9.46
2024-03-05T04:26:12.864Z,9.60
2024-03-05T04:28:40.356Z,9.70
2024-03-05T04:31:08.193Z,9.87
2024-03-05T04:33:52.880Z,9.79
2024-03-05T04:36:20.517Z,9.92
2024-03-05T04:38:48.399Z,9.87
2024-03-05T04:41:15.856Z,10.08
2024-03-05T04:43:43.651Z,10.24
2024-03-05T04:46:11.377Z,10.21
2024-03-05T04:48:44.885Z,10.29
2024-03-05T04:51:12.342Z,10.24
2024-03-05T04:53:40.117Z,10.41
2024-03-05T04:56:07.710Z,10.51
2024-03-05T04:58:35.619Z,10.32
2024-03-05T05:01:03.413Z,10.40
2024-03-05T05:03:46.882Z,10.45
2024-03-05T05:06:14.701Z,10.60
2024-03-05T05:08:42.143Z,10.36
2024-03-05T05:11:10.797Z,10.58
2024-03-05T05:13:38.439Z,10.43
2024-03-05T05:16:06.253Z,10.45
2024-03-05T05:18:33.943Z,10.30
2024-03-05T05:21:01.829Z,10.41
2024-03-05T05:23:29.455Z,10.20
2024-03-05T05:25:57.440Z,10.51
2024-03-05T05:28:25.124Z,10.06
2024-03-05T05:30:52.649Z,9.98
2024-03-05T05:33:20.588Z,9.96
2024-03-05T05:35:53.241Z,9.89
2024-03-05T05:38:21.196Z,9.88
2024-03-05T05:40:49.056Z,9.95
2024-03-05T05:43:26.269Z,10.26
2024-03-05T05:45:54.097Z,10.03
2024-03-05T05:48:21.675Z,9.82
2024-03-05T05:50:52.840Z,9.90
2024-03-05T05:53:20.580Z,9.79
2024-03-05T05:55:48.524Z,9.83
2024-03-05T05:58:16.885Z,9.97
2024-03-05T06:00:44.388Z,9.93
2024-03-05T06:03:11.956Z,10.00
2024-03-05T06:05:39.720Z,10.18
2024-03-05T06:08:09.543Z,10.21
2024-03-05T06:10:37.412Z,10.23
2024-03-05T06:13:05.370Z,10.32
2024-03-05T06:15:33.109Z,10.15
2024-03-05T06:18:00.639Z,9.92
2024-03-05T06:20:28.457Z,9.91
2024-03-05T06:22:55.928Z,9.96
2024-03-05T06:25:23.669Z,9.93
2024-03-05T06:27:51.455Z,9.34
2024-03-05T06:30:19.177Z,9.35
2024-03-05T06:32:46.970Z,9.34
2024-03-05T06:35:14.331Z,9.38
2024-03-05T06:37:42.092Z,9.39
2024-03-05T06:40:09.868Z,9.40
2024-03-05T06:42:37.636Z,9.38
2024-03-05T06:45:05.076Z,9.64
2024-03-05T06:47:34.034Z,9.63
2024-03-05T06:50:02.919Z,9.78
2024-03-05T06:52:30.757Z,9.83
2024-03-05T06:54:58.288Z,9.83
2024-03-05T06:57:26.078Z,10.03
2024-03-05T06:59:54.313Z,9.82
2024-03-05T07:02:21.931Z,9.97
2024-03-05T07:04:49.408Z,9.92
2024-03-05T07:07:16.934Z,10.04
2024-03-05T07:09:44.480Z,10.32
2024-03-05T07:12:12.020Z,10.03
2024-03-05T07:14:39.599Z,9.84
2024-03-05T07:17:07.297Z,9.71
2024-03-05T07:19:36.744Z,9.73
2024-03-05T07:22:04.850Z,9.31
2024-03-05T07:24:32.488Z,9.40
2024-03-05T07:27:04.870Z,9.15
2024-03-05T07:29:36.311Z,9.38
2024-03-05T07:32:04.055Z,9.46
2024-03-05T07:34:31.455Z,9.55
2024-03-05T07:36:58.989Z,9.59
2024-03-05T07:39:26.916Z,9.65
2024-03-05T07:41:54.463Z,9.96
2024-03-05T07:44:21.929Z,9.61
2024-03-05T07:46:49.779Z,9.52
2024-03-05T07:49:17.859Z,9.77
2024-03-05T07:51:45.926Z,9.41
2024-03-05T07:54:14.234Z,9.30
2024-03-05T07:56:42.018Z,9.13
2024-03-05T07:59:09.978Z,8.81
2024-03-05T08:01:37.978Z,8.64
2024-03-05T08:04:05.756Z,8.86
2024-03-05T08:06:33.209Z,9.20
2024-03-05T08:09:19.248Z,9.45
2024-03-05T08:12:06.942Z,9.74
2024-03-05T08:14:54.550Z,9.49
2024-03-05T08:17:42.249Z,10.06
2024-03-05T08:20:29.879Z,9.91
2024-03-05T08:23:17.512Z,9.62
2024-03-05T08:26:05.171Z,10.12
2024-03-05T08:28:52.862Z,9.57
2024-03-05T08:31:40.632Z,9.54
2024-03-05T08:34:28.333Z,9.62
2024-03-05T08:37:15.975Z,9.84
2024-03-05T08:40:05.622Z,9.73
2024-03-05T08:42:53.301Z,10.00
2024-03-05T08:45:40.962Z,9.65
2024-03-05T08:48:28.560Z,9.68
2024-03-05T08:51:16.184Z,9.72
2024-03-05T08:54:03.792Z,9.75
2024-03-05T08:56:51.432Z,9.54
2024-03-05T08:59:39.055Z,9.45
2024-03-05T09:02:26.683Z,9.77
2024-03-05T09:05:14.336Z,10.09
2024-03-05T09:08:02.035Z,9.78
2024-03-05T09:10:49.790Z,9.95
2024-03-05T09:13:37.494Z,10.16
2024-03-05T09:16:25.227Z,10.09
2024-03-05T09:19:12.858Z,10.58
2024-03-05T09:22:00.528Z,10.67
2024-03-05T09:24:48.168Z,10.70
2024-03-05T09:27:35.792Z,10.87
2024-03-05T09:30:23.455Z,10.76
2024-03-05T09:33:11.961Z,11.12
2024-03-05T09:35:59.940Z,11.37
2024-03-05T09:38:47.607Z,11.59
2024-03-05T09:41:35.405Z,11.82
2024-03-05T09:44:23.017Z,11.44
2024-03-05T09:47:10.709Z,11.32
2024-03-05T09:49:58.408Z,11.32
2024-03-05T09:52:46.124Z,11.41
2024-03-05T09:55:33.829Z,11.47
2024-03-05T09:58:21.487Z,11.65
2024-03-05T10:01:09.151Z,11.99
2024-03-05T10:03:56.848Z,11.06
2024-03-05T10:06:44.522Z,11.24
2024-03-05T10:09:11.932Z,11.42
2024-03-05T10:11:39.387Z,11.47
2024-03-05T10:14:06.935Z,10.96
2024-03-05T10:16:34.593Z,10.90
2024-03-05T10:19:02.111Z,9.93
2024-03-05T10:21:29.592Z,10.43
2024-03-05T10:23:57.038Z,10.98
2024-03-05T10:26:24.419Z,10.80
2024-03-05T10:28:52.007Z,10.74
2024-03-05T10:31:19.592Z,11.04
2024-03-05T10:33:47.067Z,11.28
2024-03-05T10:36:14.524Z,11.22
2024-03-05T10:38:42.109Z,11.24
2024-03-05T10:41:09.667Z,10.98
2024-03-05T10:43:37.561Z,11.21
2024-03-05T10:46:05.277Z,11.07
2024-03-05T10:48:32.785Z,11.40
2024-03-05T10:51:04.641Z,11.61
2024-03-05T10:53:32.155Z,11.99
2024-03-05T10:55:59.835Z,12.26
2024-03-05T10:58:27.297Z,12.46
2024-03-05T11:00:54.959Z,12.66
2024-03-05T11:03:22.357Z,12.88
2024-03-05T11:05:49.846Z,13.06
2024-03-05T11:08:20.029Z,13.31
2024-03-05T11:10:48.008Z,13.46
2024-03-05T11:13:15.510Z,13.50
2024-03-05T11:15:43.000Z,13.89
2024-03-05T11:18:10.494Z,13.37
2024-03-05T11:20:37.977Z,13.30
2024-03-05T11:23:05.414Z,13.47
2024-03-05T11:25:33.019Z,13.44
2024-03-05T11:28:00.592Z,12.64
2024-03-05T11:30:28.031Z,12.49
2024-03-05T11:32:55.609Z,12.50
2024-03-05T11:35:22.939Z,12.55
2024-03-05T11:37:50.682Z,12.66
2024-03-05T11:40:18.187Z,13.03
2024-03-05T11:42:45.660Z,13.41
2024-03-05T11:45:13.096Z,13.57
2024-03-05T11:47:40.594Z,13.57
2024-03-05T11:50:08.354Z,13.68
2024-03-05T11:52:35.911Z,13.71
2024-03-05T11:55:03.802Z,13.82
2024-03-05T11:57:31.293Z,14.11
2024-03-05T11:59:58.781Z,14.22
2024-03-05T12:02:26.342Z,14.11
2024-03-05T12:04:53.989Z,14.06
2024-03-05T12:07:21.480Z,14.18
2024-03-05T12:09:49.033Z,14.06
2024-03-05T12:12:16.566Z,12.97
2024-03-05T12:14:44.075Z,12.64
2024-03-05T12:17:12.645Z,12.85
2024-03-05T12:19:40.119Z,12.64
2024-03-05T12:22:10.523Z,10.64
2024-03-05T12:24:38.134Z,7.76
2024-03-05T12:27:05.712Z,7.15
2024-03-05T12:29:33.208Z,6.54
2024-03-05T12:32:00.806Z,6.97
2024-03-05T12:34:28.335Z,6.55
2024-03-05T12:36:55.849Z,6.77
2024-03-05T12:39:23.400Z,6.65
2024-03-05T12:41:50.882Z,6.79
2024-03-05T12:44:18.432Z,7.29
2024-03-05T12:46:45.898Z,7.27
2024-03-05T12:49:13.366Z,7.10
2024-03-05T12:51:40.833Z,6.80
2024-03-05T12:54:12.611Z,7.05
2024-03-05T12:56:40.728Z,6.89
2024-03-05T12:59:08.236Z,7.01
2024-03-05T13:01:35.807Z,6.79
2024-03-05T13:04:03.291Z,6.56
2024-03-05T13:06:30.796Z,6.79
2024-03-05T13:08:58.427Z,7.35
2024-03-05T13:11:28.226Z,7.35
2024-03-05T13:13:55.737Z,7.08
2024-03-05T13:16:23.215Z,7.43
2024-03-05T13:18:50.754Z,7.47
2024-03-05T13:21:18.212Z,7.75
2024-03-05T13:23:45.877Z,7.33
2024-03-05T13:26:13.319Z,7.79
2024-03-05T13:28:40.781Z,8.03
2024-03-05T13:31:08.220Z,8.49
2024-03-05T13:33:35.687Z,9.10
2024-03-05T13:36:03.184Z,9.34
2024-03-05T13:38:30.774Z,8.93
2024-03-05T13:40:58.248Z,8.01
2024-03-05T13:43:25.723Z,8.36
2024-03-05T13:45:53.174Z,8.43
2024-03-05T13:48:20.712Z,8.05
2024-03-05T13:50:48.205Z,8.14
2024-03-05T13:53:18.229Z,8.31
2024-03-05T13:55:46.245Z,7.79
2024-03-05T13:58:13.784Z,8.32
2024-03-05T14:00:41.531Z,7.92
2024-03-05T14:03:09.050Z,8.36
2024-03-05T14:05:36.565Z,7.50
2024-03-05T14:08:04.057Z,9.49
2024-03-05T14:10:31.635Z,9.90
2024-03-05T14:12:59.122Z,9.41
2024-03-05T14:15:26.543Z,10.35
2024-03-05T14:17:54.038Z,11.06
2024-03-05T14:20:21.684Z,11.33
2024-03-05T14:22:49.194Z,11.74
2024-03-05T14:25:16.735Z,11.52
2024-03-05T14:27:46.476Z,11.56
2024-03-05T14:30:15.603Z,12.10
2024-03-05T14:32:42.968Z,10.73
2024-03-05T14:35:10.480Z,11.28
2024-03-05T14:37:38.001Z,11.18
2024-03-05T14:40:05.530Z,11.99
2024-03-05T14:42:33.041Z,11.11
2024-03-05T14:45:00.492Z,11.89
2024-03-05T14:47:27.933Z,12.31
2024-03-05T14:49:55.460Z,11.70
2024-03-05T14:52:23.057Z,11.57
2024-03-05T14:54:50.515Z,11.09
2024-03-05T14:57:20.015Z,11.26
2024-03-05T14:59:47.483Z,8.87
2024-03-05T15:02:15.022Z,9.88
2024-03-05T15:04:44.484Z,10.58
2024-03-05T15:07:11.975Z,10.91
2024-03-05T15:09:39.392Z,11.61
2024-03-05T15:12:06.965Z,10.71
2024-03-05T15:14:34.490Z,11.41
2024-03-05T15:17:02.036Z,11.87
2024-03-05T15:19:29.672Z,12.31
2024-03-05T15:21:57.162Z,11.76
2024-03-05T15:24:26.671Z,11.63
2024-03-05T15:27:01.676Z,12.35
2024-03-05T15:29:35.091Z,11.57
2024-03-05T15:32:02.972Z,10.95
2024-03-05T15:34:30.681Z,11.73
2024-03-05T15:36:58.301Z,11.99
2024-03-05T15:39:25.635Z,12.03
2024-03-05T15:41:53.121Z,11.78
2024-03-05T15:44:20.569Z,12.17
2024-03-05T15:46:48.025Z,12.11
2024-03-05T15:49:15.533Z,12.46
2024-03-05T15:51:43.014Z,12.58
2024-03-05T15:54:10.657Z,12.75
2024-03-05T15:56:38.206Z,12.24
2024-03-05T15:59:05.630Z,11.66
2024-03-05T16:01:35.190Z,11.51
2024-03-05T16:06:30.859Z,11.64
2024-03-05T16:08:58.577Z,11.78
2024-03-05T16:11:26.415Z,11.30
2024-03-05T16:13:54.372Z,10.45
2024-03-05T16:16:21.827Z,10.04
2024-03-05T16:18:49.240Z,10.11
2024-03-05T16:21:16.861Z,9.86
2024-03-05T16:23:44.381Z,8.09
2024-03-05T16:26:11.898Z,5.50
2024-03-05T16:28:39.580Z,3.74
2024-03-05T16:31:07.262Z,3.72
2024-03-05T16:33:34.744Z,3.41
2024-03-05T16:36:02.199Z,2.96
2024-03-05T16:38:29.678Z,3.10
2024-03-05T16:40:57.139Z,3.77
2024-03-05T16:43:24.668Z,3.25
2024-03-05T16:45:52.149Z,3.63
2024-03-05T16:48:19.683Z,4.04
2024-03-05T16:50:47.367Z,5.19
2024-03-05T16:53:14.868Z,6.14
2024-03-05T16:55:42.372Z,6.77
2024-03-05T16:58:13.793Z,6.97
2024-03-05T17:00:43.880Z,7.49
2024-03-05T17:03:11.343Z,7.42
2024-03-05T17:05:38.820Z,7.03
2024-03-05T17:08:06.464Z,5.27
2024-03-05T17:10:33.991Z,6.08
2024-03-05T17:13:01.465Z,5.59
2024-03-05T17:15:28.956Z,5.97
2024-03-05T17:18:03.459Z,5.93
2024-03-05T17:20:32.257Z,6.53
2024-03-05T17:22:59.755Z,7.05
2024-03-05T17:25:27.305Z,7.83
2024-03-05T17:27:54.742Z,7.91
2024-03-05T17:30:22.204Z,8.29
2024-03-05T17:32:49.728Z,8.21
2024-03-05T17:35:17.216Z,8.65
2024-03-05T17:37:44.793Z,8.47
2024-03-05T17:40:12.339Z,8.63
2024-03-05T17:42:39.722Z,8.32
2024-03-05T17:45:07.178Z,8.00
2024-03-05T17:47:34.524Z,8.21
2024-03-05T17:50:02.185Z,7.94
2024-03-05T17:52:29.617Z,8.31
2024-03-05T17:54:56.978Z,8.04
2024-03-05T17:57:24.424Z,8.11
2024-03-05T17:59:51.895Z,8.43
2024-03-05T18:02:19.440Z,7.66
2024-03-05T18:04:46.965Z,7.29
2024-03-05T18:07:14.373Z,7.27
2024-03-05T18:09:41.821Z,7.20
2024-03-05T18:12:09.355Z,7.46
2024-03-05T18:14:37.902Z,7.42
2024-03-05T18:17:08.960Z,7.31
2024-03-05T18:19:37.065Z,7.48
2024-03-05T18:22:04.783Z,7.47
2024-03-05T18:24:32.579Z,7.69
2024-03-05T18:27:00.427Z,7.96
2024-03-05T18:29:27.788Z,7.83
2024-03-05T18:31:55.138Z,8.29
2024-03-05T18:34:22.508Z,7.73
2024-03-05T18:36:50.017Z,7.85
2024-03-05T18:39:17.632Z,7.96
2024-03-05T18:41:45.164Z,8.04
2024-03-05T18:44:12.987Z,8.23
2024-03-05T18:46:40.744Z,8.04
2024-03-05T18:49:08.676Z,8.01
2024-03-05T18:51:36.234Z,8.13
2024-03-05T18:54:04.231Z,8.18
2024-03-05T18:56:31.900Z,8.20
2024-03-05T18:58:59.932Z,8.24
2024-03-05T19:01:29.571Z,8.40
2024-03-05T19:04:04.840Z,8.80
2024-03-05T19:06:33.418Z,8.74
2024-03-05T19:09:01.164Z,8.71
2024-03-05T19:11:28.689Z,8.73
2024-03-05T19:13:56.883Z,8.82
2024-03-05T19:16:24.739Z,8.97
2024-03-05T19:18:52.905Z,8.96
2024-03-05T19:21:20.358Z,9.09
2024-03-05T19:23:47.856Z,8.99
2024-03-05T19:26:15.596Z,9.38
2024-03-05T19:28:43.362Z,9.09
2024-03-05T19:31:10.904Z,9.06
2024-03-05T19:33:39.731Z,9.02
2024-03-05T19:36:07.365Z,9.01
2024-03-05T19:38:34.852Z,9.09
2024-03-05T19:41:02.893Z,9.13
2024-03-05T19:43:30.977Z,9.15
2024-03-05T19:45:59.077Z,9.23
2024-03-05T19:48:26.718Z,9.31
2024-03-05T19:50:54.196Z,9.42
2024-03-05T19:53:25.906Z,9.27
2024-03-05T19:55:53.471Z,9.22
2024-03-05T19:58:21.272Z,9.36
2024-03-05T20:00:49.068Z,9.31
2024-03-05T20:03:16.621Z,9.35
2024-03-05T20:05:44.353Z,9.32
2024-03-05T20:08:12.349Z,9.28
2024-03-05T20:10:40.141Z,9.40
2024-03-05T20:13:07.499Z,9.44
2024-03-05T20:15:35.002Z,9.45
2024-03-05T20:18:02.519Z,9.51
2024-03-05T20:20:30.296Z,9.57
2024-03-05T20:22:58.621Z,9.57
2024-03-05T20:25:26.317Z,9.56
2024-03-05T20:27:54.133Z,9.60
2024-03-05T20:30:21.715Z,9.59
2024-03-05T20:32:49.416Z,9.79
2024-03-05T20:35:17.399Z,9.77
2024-03-05T20:37:45.007Z,9.56
2024-03-05T20:40:12.580Z,9.52
2024-03-05T20:42:39.997Z,9.61
2024-03-05T20:45:07.809Z,9.61
2024-03-05T20:47:35.621Z,9.63
2024-03-05T20:50:03.277Z,9.72
2024-03-05T20:52:31.029Z,9.56
2024-03-05T20:54:58.948Z,9.66
2024-03-05T20:57:26.651Z,9.58
2024-03-05T20:59:54.304Z,9.72
2024-03-05T21:02:22.230Z,9.70
2024-03-05T21:04:53.060Z,9.50
2024-03-05T21:07:20.649Z,9.43
2024-03-05T21:09:48.363Z,9.25
2024-03-05T21:12:15.956Z,9.22
2024-03-05T21:14:43.881Z,9.01
2024-03-05T21:17:11.875Z,8.89
2024-03-05T21:19:39.824Z,8.83
2024-03-05T21:22:10.208Z,8.95
2024-03-05T21:24:37.980Z,8.96
2024-03-05T21:27:16.750Z,8.96
2024-03-05T21:29:50.756Z,8.91
2024-03-05T21:32:18.244Z,9.30
2024-03-05T21:34:45.787Z,9.08
2024-03-05T21:37:13.195Z,9.13
2024-03-05T21:39:40.687Z,9.20
2024-03-05T21:42:08.128Z,9.23
2024-03-05T21:44:41.720Z,9.28
2024-03-05T21:47:10.453Z,9.26
2024-03-05T21:49:38.364Z,9.36
2024-03-05T21:52:05.969Z,9.42
2024-03-05T21:54:33.713Z,9.54
2024-03-05T21:57:01.398Z,9.67
2024-03-05T21:59:29.563Z,9.64
2024-03-05T22:01:57.085Z,9.74
2024-03-05T22:04:24.457Z,9.65
2024-03-05T22:06:53.450Z,9.87
2024-03-05T22:09:24.699Z,9.70
2024-03-05T22:11:52.346Z,9.69
2024-03-05T22:14:19.842Z,9.77
2024-03-05T22:16:47.613Z,9.67
2024-03-05T22:19:15.172Z,9.75
2024-03-05T22:21:42.922Z,9.69
2024-03-05T22:24:10.722Z,9.64
2024-03-05T22:26:38.641Z,9.74
2024-03-05T22:29:08.246Z,9.70
2024-03-05T22:31:36.143Z,9.90
2024-03-05T22:34:03.639Z,9.81
2024-03-05T22:36:31.431Z,9.80
2024-03-05T22:38:58.949Z,9.83
2024-03-05T22:41:26.480Z,9.79
2024-03-05T22:43:54.176Z,9.86
2024-03-05T22:46:22.026Z,9.95
2024-03-05T22:48:49.794Z,9.99
2024-03-05T22:51:17.263Z,9.96
2024-03-05T22:53:44.980Z,10.07
2024-03-05T22:56:12.657Z,10.07
2024-03-05T22:58:40.601Z,10.06
2024-03-05T23:01:14.050Z,10.15
2024-03-05T23:03:41.410Z,10.20
2024-03-05T23:06:15.529Z,10.31
2024-03-05T23:08:46.151Z,10.36
2024-03-05T23:11:13.700Z,10.38
2024-03-05T23:13:41.252Z,10.41
2024-03-05T23:16:08.611Z,10.51
2024-03-05T23:18:35.970Z,10.52
2024-03-05T23:21:03.340Z,10.49
2024-03-05T23:23:30.913Z,10.42
2024-03-05T23:25:59.245Z,10.44
2024-03-05T23:28:26.992Z,10.44
2024-03-05T23:30:54.513Z,10.49
2024-03-05T23:33:22.150Z,10.51
2024-03-05T23:35:49.643Z,10.58
2024-03-05T23:38:17.229Z,10.56
2024-03-05T23:40:45.093Z,10.46
2024-03-05T23:43:12.941Z,10.39
2024-03-05T23:45:40.630Z,10.47
2024-03-05T23:48:09.779Z,10.39
2024-03-05T23:50:37.758Z,10.47
2024-03-05T23:53:05.379Z,10.43
2024-03-05T23:55:32.912Z,10.36
2024-03-05T23:58:00.565Z,10.47
